This is the latest recevied weather packets stored in our database for station/object IW0RQH-13. If no packets are shown the sender has not sent any weather packets the latest 10 day(s).
| Time | Temp. | Humidity | Pressure | Rain* | Wind** | Luminosity | Snow |
|---|---|---|---|---|---|---|---|
| 1778075106 | 20.56° C | 54% | 1011.2 hPa | 0 mm | - | 248 W/m² | - |
| 1778067903 | 20° C | 54% | 1011.6 hPa | 0 mm | - | 196 W/m² | - |
| 1778064845 | 20.56° C | 50% | 1011.8 hPa | 0 mm | - | 269 W/m² | - |
| 1778064303 | 20.56° C | 49% | 1011.6 hPa | 0 mm | - | 835 W/m² | - |
| 1778061604 | 19.44° C | 56% | 1011.5 hPa | 0 mm | - | 496 W/m² | - |
| 1778059088 | 18.33° C | 63% | 1011.8 hPa | 0 mm | - | 587 W/m² | - |
| 1778057104 | 17.78° C | 66% | 1011.6 hPa | 0 mm | - | 882 W/m² | - |
| 1778055483 | 17.78° C | 65% | 1011.6 hPa | 0 mm | - | 179 W/m² | - |
| 1778048823 | 13.33° C | 88% | 1012.1 hPa | 0.76 mm | - | 98 W/m² | - |
| 1778046303 | 13.89° C | 87% | 1012.2 hPa | 0.51 mm | - | 34 W/m² | - |
| 1778043603 | 13.89° C | 84% | 1011.9 hPa | 0.76 mm | - | 32 W/m² | - |
| 1778041630 | 15° C | 76% | 1012.2 hPa | 0.25 mm | - | 2 W/m² | - |
| 1778040005 | 15° C | 80% | 1012.2 hPa | 0 mm | - | 0 W/m² | - |
| 1778035503 | 14.44° C | 84% | 1012.7 hPa | 0.76 mm | - | 0 W/m² | - |
| 1778033344 | 14.44° C | 84% | 1012.2 hPa | 0.76 mm | - | 0 W/m² | - |
| 1778031903 | 15.56° C | 80% | 1012.5 hPa | 0 mm | - | 0 W/m² | - |
| 1778026686 | 15° C | 81% | 1012.7 hPa | 0 mm | - | 0 W/m² | - |
| 1778020566 | 16.11° C | 75% | 1013.7 hPa | 0 mm | - | 0 W/m² | - |
| 1778018046 | 16.11° C | 75% | 1014.2 hPa | 0 mm | - | 0 W/m² | - |
| 1778016964 | 16.11° C | 75% | 1013.9 hPa | 0 mm | - | 0 W/m² | - |
| 1778011743 | 16.67° C | 73% | 1014.1 hPa | 0 mm | - | 0 W/m² | - |
| 1778010306 | 16.67° C | 71% | 1013.8 hPa | 0 mm | - | 0 W/m² | - |
| 1778007608 | 16.67° C | 72% | 1013.7 hPa | 0 mm | - | 0 W/m² | - |
| 1778005086 | 17.22° C | 72% | 1013.3 hPa | 0 mm | - | 0 W/m² | - |
| 1778000065 | 17.78° C | 69% | 1013.3 hPa | 0 mm | - | 20 W/m² | - |
* Rain latest hour (hover to see other rain measurements)
** Current wind speed in m/s (hover to see current wind gust speed)